sensor_id;sensor_type;location;lat;lon;timestamp;temperature;humidity
43143;DHT22;28750;59.842;17.584;2024-03-02T00:00:30;5.40;99.90
43143;DHT22;28750;59.842;17.584;2024-03-02T00:02:57;5.40;99.90
43143;DHT22;28750;59.842;17.584;2024-03-02T00:05:24;5.40;99.90
43143;DHT22;28750;59.842;17.584;2024-03-02T00:07:52;5.40;99.90
43143;DHT22;28750;59.842;17.584;2024-03-02T00:10:27;5.40;99.90
43143;DHT22;28750;59.842;17.584;2024-03-02T00:12:57;5.50;99.90
43143;DHT22;28750;59.842;17.584;2024-03-02T00:17:59;5.50;99.90
43143;DHT22;28750;59.842;17.584;2024-03-02T00:20:26;5.50;99.90
43143;DHT22;28750;59.842;17.584;2024-03-02T00:22:55;5.50;99.90
43143;DHT22;28750;59.842;17.584;2024-03-02T00:25:25;5.50;99.90
43143;DHT22;28750;59.842;17.584;2024-03-02T00:27:51;5.50;99.90
43143;DHT22;28750;59.842;17.584;2024-03-02T00:30:42;5.50;99.90
43143;DHT22;28750;59.842;17.584;2024-03-02T00:33:13;5.50;99.90
43143;DHT22;28750;59.842;17.584;2024-03-02T00:35:40;5.50;99.90
43143;DHT22;28750;59.842;17.584;2024-03-02T00:38:07;5.50;99.90
43143;DHT22;28750;59.842;17.584;2024-03-02T00:40:34;5.50;99.90
43143;DHT22;28750;59.842;17.584;2024-03-02T00:43:01;5.60;99.90
43143;DHT22;28750;59.842;17.584;2024-03-02T00:45:28;5.60;99.90
43143;DHT22;28750;59.842;17.584;2024-03-02T00:47:55;5.50;99.90
43143;DHT22;28750;59.842;17.584;2024-03-02T00:50:22;5.60;99.90
43143;DHT22;28750;59.842;17.584;2024-03-02T00:52:49;5.60;99.90
43143;DHT22;28750;59.842;17.584;2024-03-02T00:55:16;5.60;99.90
43143;DHT22;28750;59.842;17.584;2024-03-02T00:57:44;5.70;99.90
43143;DHT22;28750;59.842;17.584;2024-03-02T01:00:11;5.60;99.90
43143;DHT22;28750;59.842;17.584;2024-03-02T01:02:40;5.60;99.90
43143;DHT22;28750;59.842;17.584;2024-03-02T01:05:09;5.60;99.90
43143;DHT22;28750;59.842;17.584;2024-03-02T01:07:37;5.70;99.90
43143;DHT22;28750;59.842;17.584;2024-03-02T01:10:05;5.60;99.90
43143;DHT22;28750;59.842;17.584;2024-03-02T01:12:32;5.70;99.90
43143;DHT22;28750;59.842;17.584;2024-03-02T01:14:59;5.70;99.90
43143;DHT22;28750;59.842;17.584;2024-03-02T01:17:26;5.70;99.90
43143;DHT22;28750;59.842;17.584;2024-03-02T01:19:53;5.70;99.90
43143;DHT22;28750;59.842;17.584;2024-03-02T01:22:20;5.70;99.90
43143;DHT22;28750;59.842;17.584;2024-03-02T01:24:50;5.70;99.90
43143;DHT22;28750;59.842;17.584;2024-03-02T01:27:17;5.70;99.90
43143;DHT22;28750;59.842;17.584;2024-03-02T01:29:44;5.70;99.90
43143;DHT22;28750;59.842;17.584;2024-03-02T01:32:11;5.70;99.90
43143;DHT22;28750;59.842;17.584;2024-03-02T01:34:38;5.60;99.90
43143;DHT22;28750;59.842;17.584;2024-03-02T01:37:05;5.70;99.90
43143;DHT22;28750;59.842;17.584;2024-03-02T01:39:31;5.70;99.90
43143;DHT22;28750;59.842;17.584;2024-03-02T01:41:58;5.70;99.90
43143;DHT22;28750;59.842;17.584;2024-03-02T01:44:25;5.70;99.90
43143;DHT22;28750;59.842;17.584;2024-03-02T01:46:52;5.70;99.90
43143;DHT22;28750;59.842;17.584;2024-03-02T01:49:19;5.60;99.90
43143;DHT22;28750;59.842;17.584;2024-03-02T01:51:46;5.70;99.90
43143;DHT22;28750;59.842;17.584;2024-03-02T01:54:13;5.60;99.90
43143;DHT22;28750;59.842;17.584;2024-03-02T01:56:40;5.70;99.90
43143;DHT22;28750;59.842;17.584;2024-03-02T01:59:07;5.70;99.90
43143;DHT22;28750;59.842;17.584;2024-03-02T02:01:34;5.60;99.90
43143;DHT22;28750;59.842;17.584;2024-03-02T02:04:01;5.70;99.90
43143;DHT22;28750;59.842;17.584;2024-03-02T02:06:28;5.70;99.90
43143;DHT22;28750;59.842;17.584;2024-03-02T02:08:55;5.70;99.90
43143;DHT22;28750;59.842;17.584;2024-03-02T02:11:22;5.60;99.90
43143;DHT22;28750;59.842;17.584;2024-03-02T02:13:49;5.70;99.90
43143;DHT22;28750;59.842;17.584;2024-03-02T02:16:16;5.60;99.90
43143;DHT22;28750;59.842;17.584;2024-03-02T02:18:43;5.60;99.90
43143;DHT22;28750;59.842;17.584;2024-03-02T02:21:10;5.60;99.90
43143;DHT22;28750;59.842;17.584;2024-03-02T02:23:37;5.60;99.90
43143;DHT22;28750;59.842;17.584;2024-03-02T02:26:04;5.60;99.90
43143;DHT22;28750;59.842;17.584;2024-03-02T02:28:31;5.60;99.90
43143;DHT22;28750;59.842;17.584;2024-03-02T02:30:58;5.60;99.90
43143;DHT22;28750;59.842;17.584;2024-03-02T02:33:25;5.60;99.90
43143;DHT22;28750;59.842;17.584;2024-03-02T02:35:52;5.60;99.90
43143;DHT22;28750;59.842;17.584;2024-03-02T02:38:19;5.60;99.90
43143;DHT22;28750;59.842;17.584;2024-03-02T02:40:46;5.60;99.90
43143;DHT22;28750;59.842;17.584;2024-03-02T02:43:13;5.60;99.90
43143;DHT22;28750;59.842;17.584;2024-03-02T02:45:40;5.50;99.90
43143;DHT22;28750;59.842;17.584;2024-03-02T02:48:07;5.60;99.90
43143;DHT22;28750;59.842;17.584;2024-03-02T02:50:34;5.50;99.90
43143;DHT22;28750;59.842;17.584;2024-03-02T02:53:01;5.50;99.90
43143;DHT22;28750;59.842;17.584;2024-03-02T02:55:28;5.50;99.90
43143;DHT22;28750;59.842;17.584;2024-03-02T02:57:55;5.50;99.90
43143;DHT22;28750;59.842;17.584;2024-03-02T03:00:22;5.50;99.90
43143;DHT22;28750;59.842;17.584;2024-03-02T03:02:49;5.50;99.90
43143;DHT22;28750;59.842;17.584;2024-03-02T03:05:16;5.50;99.90
43143;DHT22;28750;59.842;17.584;2024-03-02T03:07:43;5.40;99.90
43143;DHT22;28750;59.842;17.584;2024-03-02T03:10:10;5.50;99.90
43143;DHT22;28750;59.842;17.584;2024-03-02T03:12:38;5.40;99.90
43143;DHT22;28750;59.842;17.584;2024-03-02T03:15:06;5.40;99.90
43143;DHT22;28750;59.842;17.584;2024-03-02T03:17:33;5.50;99.90
43143;DHT22;28750;59.842;17.584;2024-03-02T03:20:01;5.40;99.90
43143;DHT22;28750;59.842;17.584;2024-03-02T03:22:29;5.40;99.90
43143;DHT22;28750;59.842;17.584;2024-03-02T03:24:57;5.40;99.90
43143;DHT22;28750;59.842;17.584;2024-03-02T03:27:24;5.40;99.90
43143;DHT22;28750;59.842;17.584;2024-03-02T03:29:51;5.40;99.90
43143;DHT22;28750;59.842;17.584;2024-03-02T03:32:19;5.40;99.90
43143;DHT22;28750;59.842;17.584;2024-03-02T03:34:47;5.40;99.90
43143;DHT22;28750;59.842;17.584;2024-03-02T03:37:14;5.30;99.90
43143;DHT22;28750;59.842;17.584;2024-03-02T03:39:41;5.40;99.90
43143;DHT22;28750;59.842;17.584;2024-03-02T03:42:08;5.30;99.90
43143;DHT22;28750;59.842;17.584;2024-03-02T03:44:34;5.30;99.90
43143;DHT22;28750;59.842;17.584;2024-03-02T03:47:01;5.30;99.90
43143;DHT22;28750;59.842;17.584;2024-03-02T03:49:28;5.30;99.90
43143;DHT22;28750;59.842;17.584;2024-03-02T03:51:55;5.30;99.90
43143;DHT22;28750;59.842;17.584;2024-03-02T03:54:22;5.30;99.90
43143;DHT22;28750;59.842;17.584;2024-03-02T03:56:49;5.30;99.90
43143;DHT22;28750;59.842;17.584;2024-03-02T03:59:16;5.20;99.90
43143;DHT22;28750;59.842;17.584;2024-03-02T04:01:43;5.20;99.90
43143;DHT22;28750;59.842;17.584;2024-03-02T04:04:10;5.20;99.90
43143;DHT22;28750;59.842;17.584;2024-03-02T04:06:37;5.20;99.90
43143;DHT22;28750;59.842;17.584;2024-03-02T04:09:04;5.20;99.90
43143;DHT22;28750;59.842;17.584;2024-03-02T04:11:31;5.20;99.90
43143;DHT22;28750;59.842;17.584;2024-03-02T04:13:58;5.20;99.90
43143;DHT22;28750;59.842;17.584;2024-03-02T04:16:25;5.20;99.90
43143;DHT22;28750;59.842;17.584;2024-03-02T04:18:52;5.20;99.90
43143;DHT22;28750;59.842;17.584;2024-03-02T04:21:19;5.20;99.90
43143;DHT22;28750;59.842;17.584;2024-03-02T04:23:46;5.10;99.90
43143;DHT22;28750;59.842;17.584;2024-03-02T04:26:13;5.20;99.90
43143;DHT22;28750;59.842;17.584;2024-03-02T04:28:45;5.10;99.90
43143;DHT22;28750;59.842;17.584;2024-03-02T04:31:12;5.10;99.90
43143;DHT22;28750;59.842;17.584;2024-03-02T04:33:39;5.10;99.90
43143;DHT22;28750;59.842;17.584;2024-03-02T04:36:06;5.10;99.90
43143;DHT22;28750;59.842;17.584;2024-03-02T04:38:35;5.10;99.90
43143;DHT22;28750;59.842;17.584;2024-03-02T04:41:02;5.10;99.90
43143;DHT22;28750;59.842;17.584;2024-03-02T04:43:29;5.10;99.90
43143;DHT22;28750;59.842;17.584;2024-03-02T04:45:57;5.10;99.90
43143;DHT22;28750;59.842;17.584;2024-03-02T04:48:24;5.10;99.90
43143;DHT22;28750;59.842;17.584;2024-03-02T04:50:51;5.00;99.90
43143;DHT22;28750;59.842;17.584;2024-03-02T04:53:18;5.00;99.90
43143;DHT22;28750;59.842;17.584;2024-03-02T04:55:45;5.00;99.90
43143;DHT22;28750;59.842;17.584;2024-03-02T04:58:35;5.00;99.90
43143;DHT22;28750;59.842;17.584;2024-03-02T05:01:02;5.00;99.90
43143;DHT22;28750;59.842;17.584;2024-03-02T05:03:29;5.00;99.90
43143;DHT22;28750;59.842;17.584;2024-03-02T05:05:56;5.00;99.90
43143;DHT22;28750;59.842;17.584;2024-03-02T05:08:23;5.00;99.90
43143;DHT22;28750;59.842;17.584;2024-03-02T05:10:50;4.90;99.90
43143;DHT22;28750;59.842;17.584;2024-03-02T05:13:17;4.90;99.90
43143;DHT22;28750;59.842;17.584;2024-03-02T05:15:46;5.00;99.90
43143;DHT22;28750;59.842;17.584;2024-03-02T05:18:13;4.90;99.90
43143;DHT22;28750;59.842;17.584;2024-03-02T05:20:40;4.90;99.90
43143;DHT22;28750;59.842;17.584;2024-03-02T05:23:07;4.90;99.90
43143;DHT22;28750;59.842;17.584;2024-03-02T05:25:34;4.90;99.90
43143;DHT22;28750;59.842;17.584;2024-03-02T05:28:01;4.90;99.90
43143;DHT22;28750;59.842;17.584;2024-03-02T05:30:28;4.90;99.90
43143;DHT22;28750;59.842;17.584;2024-03-02T05:32:55;4.90;99.90
43143;DHT22;28750;59.842;17.584;2024-03-02T05:35:22;4.90;99.90
43143;DHT22;28750;59.842;17.584;2024-03-02T05:37:49;4.90;99.90
43143;DHT22;28750;59.842;17.584;2024-03-02T05:40:16;4.90;99.90
43143;DHT22;28750;59.842;17.584;2024-03-02T05:42:43;4.90;99.90
43143;DHT22;28750;59.842;17.584;2024-03-02T05:45:09;4.80;99.90
43143;DHT22;28750;59.842;17.584;2024-03-02T05:47:36;4.90;99.90
43143;DHT22;28750;59.842;17.584;2024-03-02T05:50:04;4.90;99.90
43143;DHT22;28750;59.842;17.584;2024-03-02T05:52:32;4.90;99.90
43143;DHT22;28750;59.842;17.584;2024-03-02T05:54:59;4.80;99.90
43143;DHT22;28750;59.842;17.584;2024-03-02T05:57:26;4.80;99.90
43143;DHT22;28750;59.842;17.584;2024-03-02T06:00:10;4.80;99.90
43143;DHT22;28750;59.842;17.584;2024-03-02T06:02:40;4.80;99.90
43143;DHT22;28750;59.842;17.584;2024-03-02T06:05:07;4.80;99.90
43143;DHT22;28750;59.842;17.584;2024-03-02T06:07:34;4.80;99.90
43143;DHT22;28750;59.842;17.584;2024-03-02T06:10:01;4.80;99.90
43143;DHT22;28750;59.842;17.584;2024-03-02T06:12:30;4.80;99.90
43143;DHT22;28750;59.842;17.584;2024-03-02T06:14:57;4.80;99.90
43143;DHT22;28750;59.842;17.584;2024-03-02T06:17:24;4.80;99.90
43143;DHT22;28750;59.842;17.584;2024-03-02T06:19:51;4.80;99.90
43143;DHT22;28750;59.842;17.584;2024-03-02T06:22:18;4.80;99.90
43143;DHT22;28750;59.842;17.584;2024-03-02T06:24:46;4.80;99.90
43143;DHT22;28750;59.842;17.584;2024-03-02T06:27:13;4.80;99.90
43143;DHT22;28750;59.842;17.584;2024-03-02T06:29:40;4.90;99.90
43143;DHT22;28750;59.842;17.584;2024-03-02T06:32:07;4.80;99.90
43143;DHT22;28750;59.842;17.584;2024-03-02T06:34:34;4.80;99.90
43143;DHT22;28750;59.842;17.584;2024-03-02T06:37:01;4.90;99.90
43143;DHT22;28750;59.842;17.584;2024-03-02T06:39:28;4.90;99.90
43143;DHT22;28750;59.842;17.584;2024-03-02T06:41:56;4.80;99.90
43143;DHT22;28750;59.842;17.584;2024-03-02T06:44:23;4.80;99.90
43143;DHT22;28750;59.842;17.584;2024-03-02T06:46:50;4.80;99.90
43143;DHT22;28750;59.842;17.584;2024-03-02T06:49:17;4.80;99.90
43143;DHT22;28750;59.842;17.584;2024-03-02T06:51:44;4.90;99.90
43143;DHT22;28750;59.842;17.584;2024-03-02T06:54:11;4.80;99.90
43143;DHT22;28750;59.842;17.584;2024-03-02T06:56:38;4.80;99.90
43143;DHT22;28750;59.842;17.584;2024-03-02T06:59:05;4.90;99.90
43143;DHT22;28750;59.842;17.584;2024-03-02T07:01:32;4.90;99.90
43143;DHT22;28750;59.842;17.584;2024-03-02T07:04:00;4.90;99.90
43143;DHT22;28750;59.842;17.584;2024-03-02T07:06:26;4.90;99.90
43143;DHT22;28750;59.842;17.584;2024-03-02T07:08:53;4.90;99.90
43143;DHT22;28750;59.842;17.584;2024-03-02T07:11:20;4.90;99.90
43143;DHT22;28750;59.842;17.584;2024-03-02T07:13:47;4.80;99.90
43143;DHT22;28750;59.842;17.584;2024-03-02T07:16:14;4.90;99.90
43143;DHT22;28750;59.842;17.584;2024-03-02T07:18:55;4.90;99.90
43143;DHT22;28750;59.842;17.584;2024-03-02T07:21:22;4.90;99.90
43143;DHT22;28750;59.842;17.584;2024-03-02T07:23:49;4.90;99.90
43143;DHT22;28750;59.842;17.584;2024-03-02T07:26:16;4.90;99.90
43143;DHT22;28750;59.842;17.584;2024-03-02T07:28:47;4.90;99.90
43143;DHT22;28750;59.842;17.584;2024-03-02T07:31:15;5.00;99.90
43143;DHT22;28750;59.842;17.584;2024-03-02T07:33:43;5.00;99.90
43143;DHT22;28750;59.842;17.584;2024-03-02T07:36:10;5.00;99.90
43143;DHT22;28750;59.842;17.584;2024-03-02T07:38:37;5.00;99.90
43143;DHT22;28750;59.842;17.584;2024-03-02T07:41:05;5.10;99.90
43143;DHT22;28750;59.842;17.584;2024-03-02T07:43:32;5.10;99.90
43143;DHT22;28750;59.842;17.584;2024-03-02T07:45:59;5.10;99.90
43143;DHT22;28750;59.842;17.584;2024-03-02T07:48:28;5.10;99.90
43143;DHT22;28750;59.842;17.584;2024-03-02T07:50:56;5.10;99.90
43143;DHT22;28750;59.842;17.584;2024-03-02T07:53:23;5.10;99.90
43143;DHT22;28750;59.842;17.584;2024-03-02T07:55:50;5.20;99.90
43143;DHT22;28750;59.842;17.584;2024-03-02T07:58:16;5.20;99.90
43143;DHT22;28750;59.842;17.584;2024-03-02T08:00:44;5.20;99.90
43143;DHT22;28750;59.842;17.584;2024-03-02T08:03:11;5.20;99.90
43143;DHT22;28750;59.842;17.584;2024-03-02T08:05:38;5.20;99.90
43143;DHT22;28750;59.842;17.584;2024-03-02T08:08:05;5.20;99.90
43143;DHT22;28750;59.842;17.584;2024-03-02T08:10:32;5.20;99.90
43143;DHT22;28750;59.842;17.584;2024-03-02T08:12:59;5.20;99.90
43143;DHT22;28750;59.842;17.584;2024-03-02T08:15:26;5.20;99.90
43143;DHT22;28750;59.842;17.584;2024-03-02T08:17:53;5.20;99.90
43143;DHT22;28750;59.842;17.584;2024-03-02T08:20:21;5.20;99.90
43143;DHT22;28750;59.842;17.584;2024-03-02T08:22:48;5.30;99.90
43143;DHT22;28750;59.842;17.584;2024-03-02T08:25:15;5.30;99.90
43143;DHT22;28750;59.842;17.584;2024-03-02T08:27:42;5.40;99.90
43143;DHT22;28750;59.842;17.584;2024-03-02T08:30:09;5.40;99.90
43143;DHT22;28750;59.842;17.584;2024-03-02T08:32:36;5.40;99.90
43143;DHT22;28750;59.842;17.584;2024-03-02T08:35:03;5.40;99.90
43143;DHT22;28750;59.842;17.584;2024-03-02T08:37:30;5.40;99.90
43143;DHT22;28750;59.842;17.584;2024-03-02T08:39:57;5.40;99.90
43143;DHT22;28750;59.842;17.584;2024-03-02T08:42:24;5.40;99.90
43143;DHT22;28750;59.842;17.584;2024-03-02T08:44:51;5.40;99.90
43143;DHT22;28750;59.842;17.584;2024-03-02T08:47:18;5.40;99.90
43143;DHT22;28750;59.842;17.584;2024-03-02T08:49:45;5.40;99.90
43143;DHT22;28750;59.842;17.584;2024-03-02T08:52:12;5.40;99.90
43143;DHT22;28750;59.842;17.584;2024-03-02T08:54:39;5.40;99.90
43143;DHT22;28750;59.842;17.584;2024-03-02T08:57:06;5.50;99.90
43143;DHT22;28750;59.842;17.584;2024-03-02T08:59:33;5.50;99.90
43143;DHT22;28750;59.842;17.584;2024-03-02T09:02:00;5.50;99.90
43143;DHT22;28750;59.842;17.584;2024-03-02T09:04:27;5.50;99.90
43143;DHT22;28750;59.842;17.584;2024-03-02T09:06:54;5.50;99.90
43143;DHT22;28750;59.842;17.584;2024-03-02T09:09:21;5.50;99.90
43143;DHT22;28750;59.842;17.584;2024-03-02T09:11:48;5.50;99.90
43143;DHT22;28750;59.842;17.584;2024-03-02T09:14:15;5.60;99.90
43143;DHT22;28750;59.842;17.584;2024-03-02T09:16:42;5.60;99.90
43143;DHT22;28750;59.842;17.584;2024-03-02T09:19:09;5.60;99.90
43143;DHT22;28750;59.842;17.584;2024-03-02T09:21:36;5.60;99.90
43143;DHT22;28750;59.842;17.584;2024-03-02T09:24:03;5.50;99.90
43143;DHT22;28750;59.842;17.584;2024-03-02T09:26:32;5.60;99.90
43143;DHT22;28750;59.842;17.584;2024-03-02T09:28:59;5.60;99.90
43143;DHT22;28750;59.842;17.584;2024-03-02T09:31:25;5.50;99.90
43143;DHT22;28750;59.842;17.584;2024-03-02T09:33:52;5.60;99.90
43143;DHT22;28750;59.842;17.584;2024-03-02T09:36:20;5.60;99.90
43143;DHT22;28750;59.842;17.584;2024-03-02T09:38:47;5.60;99.90
43143;DHT22;28750;59.842;17.584;2024-03-02T09:41:14;5.60;99.90
43143;DHT22;28750;59.842;17.584;2024-03-02T09:43:41;5.60;99.90
43143;DHT22;28750;59.842;17.584;2024-03-02T09:46:09;5.60;99.90
43143;DHT22;28750;59.842;17.584;2024-03-02T09:48:36;5.60;99.90
43143;DHT22;28750;59.842;17.584;2024-03-02T09:51:03;5.70;99.90
43143;DHT22;28750;59.842;17.584;2024-03-02T09:53:31;5.70;99.90
43143;DHT22;28750;59.842;17.584;2024-03-02T09:55:59;5.70;99.90
43143;DHT22;28750;59.842;17.584;2024-03-02T09:58:26;5.70;99.90
43143;DHT22;28750;59.842;17.584;2024-03-02T10:00:53;5.70;99.90
43143;DHT22;28750;59.842;17.584;2024-03-02T10:03:20;5.70;99.90
43143;DHT22;28750;59.842;17.584;2024-03-02T10:05:49;5.70;99.90
43143;DHT22;28750;59.842;17.584;2024-03-02T10:08:17;5.70;99.90
43143;DHT22;28750;59.842;17.584;2024-03-02T10:10:44;5.70;99.90
43143;DHT22;28750;59.842;17.584;2024-03-02T10:13:11;5.80;99.90
43143;DHT22;28750;59.842;17.584;2024-03-02T10:15:39;5.80;99.90
43143;DHT22;28750;59.842;17.584;2024-03-02T10:18:10;5.90;99.90
43143;DHT22;28750;59.842;17.584;2024-03-02T10:20:38;5.90;99.90
43143;DHT22;28750;59.842;17.584;2024-03-02T10:25:38;6.00;99.90
43143;DHT22;28750;59.842;17.584;2024-03-02T10:28:05;6.00;99.90
43143;DHT22;28750;59.842;17.584;2024-03-02T10:30:32;6.10;99.90
43143;DHT22;28750;59.842;17.584;2024-03-02T10:33:03;6.00;99.90
43143;DHT22;28750;59.842;17.584;2024-03-02T10:35:30;6.00;99.90
43143;DHT22;28750;59.842;17.584;2024-03-02T10:38:00;6.00;99.90
43143;DHT22;28750;59.842;17.584;2024-03-02T10:40:28;6.00;99.90
43143;DHT22;28750;59.842;17.584;2024-03-02T10:42:56;6.00;99.90
43143;DHT22;28750;59.842;17.584;2024-03-02T10:45:23;6.00;99.90
43143;DHT22;28750;59.842;17.584;2024-03-02T10:47:51;6.00;99.90
43143;DHT22;28750;59.842;17.584;2024-03-02T10:50:18;6.00;99.90
43143;DHT22;28750;59.842;17.584;2024-03-02T10:52:45;6.10;99.90
43143;DHT22;28750;59.842;17.584;2024-03-02T10:55:12;6.00;99.90
43143;DHT22;28750;59.842;17.584;2024-03-02T11:00:06;6.00;99.90
43143;DHT22;28750;59.842;17.584;2024-03-02T11:02:44;6.00;99.90
43143;DHT22;28750;59.842;17.584;2024-03-02T11:05:13;6.00;99.90
43143;DHT22;28750;59.842;17.584;2024-03-02T11:07:44;5.90;99.90
43143;DHT22;28750;59.842;17.584;2024-03-02T11:10:11;6.00;99.90
43143;DHT22;28750;59.842;17.584;2024-03-02T11:12:39;6.00;99.90
43143;DHT22;28750;59.842;17.584;2024-03-02T11:15:10;6.00;99.90
43143;DHT22;28750;59.842;17.584;2024-03-02T11:17:38;6.00;99.90
43143;DHT22;28750;59.842;17.584;2024-03-02T11:20:06;6.00;99.90
43143;DHT22;28750;59.842;17.584;2024-03-02T11:22:35;6.10;99.90
43143;DHT22;28750;59.842;17.584;2024-03-02T11:25:02;6.10;99.90
43143;DHT22;28750;59.842;17.584;2024-03-02T11:28:04;6.00;99.90
43143;DHT22;28750;59.842;17.584;2024-03-02T11:35:25;6.10;99.90
43143;DHT22;28750;59.842;17.584;2024-03-02T11:37:53;6.10;99.90
43143;DHT22;28750;59.842;17.584;2024-03-02T11:40:27;6.10;99.90
43143;DHT22;28750;59.842;17.584;2024-03-02T11:42:54;6.20;99.90
43143;DHT22;28750;59.842;17.584;2024-03-02T11:45:24;6.20;99.90
43143;DHT22;28750;59.842;17.584;2024-03-02T11:47:55;6.20;99.90
43143;DHT22;28750;59.842;17.584;2024-03-02T11:50:34;6.30;99.90
43143;DHT22;28750;59.842;17.584;2024-03-02T11:53:03;6.30;99.90
43143;DHT22;28750;59.842;17.584;2024-03-02T11:55:36;6.30;99.90
43143;DHT22;28750;59.842;17.584;2024-03-02T11:58:06;6.20;99.90
43143;DHT22;28750;59.842;17.584;2024-03-02T12:00:33;6.30;99.90
43143;DHT22;28750;59.842;17.584;2024-03-02T12:03:03;6.30;99.90
43143;DHT22;28750;59.842;17.584;2024-03-02T12:05:32;6.30;99.90
43143;DHT22;28750;59.842;17.584;2024-03-02T12:07:59;6.30;99.90
43143;DHT22;28750;59.842;17.584;2024-03-02T12:10:27;6.30;99.90
43143;DHT22;28750;59.842;17.584;2024-03-02T12:12:58;6.30;99.90
43143;DHT22;28750;59.842;17.584;2024-03-02T12:15:34;6.30;99.90
43143;DHT22;28750;59.842;17.584;2024-03-02T12:18:02;6.30;99.90
43143;DHT22;28750;59.842;17.584;2024-03-02T12:20:30;6.30;99.90
43143;DHT22;28750;59.842;17.584;2024-03-02T12:23:02;6.30;99.90
43143;DHT22;28750;59.842;17.584;2024-03-02T12:25:31;6.40;99.90
43143;DHT22;28750;59.842;17.584;2024-03-02T12:27:59;6.40;99.90
43143;DHT22;28750;59.842;17.584;2024-03-02T12:30:27;6.40;99.90
43143;DHT22;28750;59.842;17.584;2024-03-02T12:32:54;6.40;99.90
43143;DHT22;28750;59.842;17.584;2024-03-02T12:35:21;6.50;99.90
43143;DHT22;28750;59.842;17.584;2024-03-02T12:37:48;6.40;99.90
43143;DHT22;28750;59.842;17.584;2024-03-02T12:40:19;6.40;99.90
43143;DHT22;28750;59.842;17.584;2024-03-02T12:42:48;6.30;99.90
43143;DHT22;28750;59.842;17.584;2024-03-02T12:45:15;6.40;99.90
43143;DHT22;28750;59.842;17.584;2024-03-02T12:47:48;6.40;99.90
43143;DHT22;28750;59.842;17.584;2024-03-02T12:50:15;6.50;99.90
43143;DHT22;28750;59.842;17.584;2024-03-02T12:52:43;6.40;99.90
43143;DHT22;28750;59.842;17.584;2024-03-02T12:55:10;6.50;99.90
43143;DHT22;28750;59.842;17.584;2024-03-02T12:57:37;6.50;99.90
43143;DHT22;28750;59.842;17.584;2024-03-02T13:00:05;6.40;99.90
43143;DHT22;28750;59.842;17.584;2024-03-02T13:02:35;6.30;99.90
43143;DHT22;28750;59.842;17.584;2024-03-02T13:05:02;6.30;99.90
43143;DHT22;28750;59.842;17.584;2024-03-02T13:07:29;6.30;99.90
43143;DHT22;28750;59.842;17.584;2024-03-02T13:09:56;6.30;99.90
43143;DHT22;28750;59.842;17.584;2024-03-02T13:12:24;6.20;99.90
43143;DHT22;28750;59.842;17.584;2024-03-02T13:14:51;6.20;99.90
43143;DHT22;28750;59.842;17.584;2024-03-02T13:17:19;6.30;99.90
43143;DHT22;28750;59.842;17.584;2024-03-02T13:19:55;6.40;99.90
43143;DHT22;28750;59.842;17.584;2024-03-02T13:22:23;6.30;99.90
43143;DHT22;28750;59.842;17.584;2024-03-02T13:24:51;6.30;99.90
43143;DHT22;28750;59.842;17.584;2024-03-02T13:27:19;6.20;99.90
43143;DHT22;28750;59.842;17.584;2024-03-02T13:29:47;6.20;99.90
43143;DHT22;28750;59.842;17.584;2024-03-02T13:32:14;6.10;99.90
43143;DHT22;28750;59.842;17.584;2024-03-02T13:34:42;6.00;99.90
43143;DHT22;28750;59.842;17.584;2024-03-02T13:37:09;6.00;99.90
43143;DHT22;28750;59.842;17.584;2024-03-02T13:39:36;6.00;99.90
43143;DHT22;28750;59.842;17.584;2024-03-02T13:42:07;6.00;99.90
43143;DHT22;28750;59.842;17.584;2024-03-02T13:44:34;6.00;99.90
43143;DHT22;28750;59.842;17.584;2024-03-02T13:47:02;6.00;99.90
43143;DHT22;28750;59.842;17.584;2024-03-02T13:49:29;6.00;99.90
43143;DHT22;28750;59.842;17.584;2024-03-02T13:52:04;6.00;99.90
43143;DHT22;28750;59.842;17.584;2024-03-02T13:54:36;5.90;99.90
43143;DHT22;28750;59.842;17.584;2024-03-02T13:57:04;5.90;99.90
43143;DHT22;28750;59.842;17.584;2024-03-02T13:59:31;5.80;99.90
43143;DHT22;28750;59.842;17.584;2024-03-02T14:01:58;5.80;99.90
43143;DHT22;28750;59.842;17.584;2024-03-02T14:04:25;5.80;99.90
43143;DHT22;28750;59.842;17.584;2024-03-02T14:06:51;5.70;99.90
43143;DHT22;28750;59.842;17.584;2024-03-02T14:09:19;5.70;99.90
43143;DHT22;28750;59.842;17.584;2024-03-02T14:11:46;5.60;99.90
43143;DHT22;28750;59.842;17.584;2024-03-02T14:14:15;5.60;99.90
43143;DHT22;28750;59.842;17.584;2024-03-02T14:16:41;5.60;99.90
43143;DHT22;28750;59.842;17.584;2024-03-02T14:19:09;5.60;99.90
43143;DHT22;28750;59.842;17.584;2024-03-02T14:21:37;5.50;99.90
43143;DHT22;28750;59.842;17.584;2024-03-02T14:24:04;5.50;99.90
43143;DHT22;28750;59.842;17.584;2024-03-02T14:26:32;5.50;99.90
43143;DHT22;28750;59.842;17.584;2024-03-02T14:28:59;5.50;99.90
43143;DHT22;28750;59.842;17.584;2024-03-02T14:31:27;5.40;99.90
43143;DHT22;28750;59.842;17.584;2024-03-02T14:33:54;5.40;99.90
43143;DHT22;28750;59.842;17.584;2024-03-02T14:36:21;5.40;99.90
43143;DHT22;28750;59.842;17.584;2024-03-02T14:38:48;5.40;99.90
43143;DHT22;28750;59.842;17.584;2024-03-02T14:41:15;5.40;99.90
43143;DHT22;28750;59.842;17.584;2024-03-02T14:43:42;5.40;99.90
43143;DHT22;28750;59.842;17.584;2024-03-02T14:46:09;5.40;99.90
43143;DHT22;28750;59.842;17.584;2024-03-02T14:48:36;5.40;99.90
43143;DHT22;28750;59.842;17.584;2024-03-02T14:51:04;5.40;99.90
43143;DHT22;28750;59.842;17.584;2024-03-02T14:53:31;5.30;99.90
43143;DHT22;28750;59.842;17.584;2024-03-02T14:55:58;5.30;99.90
43143;DHT22;28750;59.842;17.584;2024-03-02T14:58:25;5.40;99.90
43143;DHT22;28750;59.842;17.584;2024-03-02T15:00:52;5.40;99.90
43143;DHT22;28750;59.842;17.584;2024-03-02T15:03:19;5.30;99.90
43143;DHT22;28750;59.842;17.584;2024-03-02T15:05:46;5.40;99.90
43143;DHT22;28750;59.842;17.584;2024-03-02T15:08:17;5.40;99.90
43143;DHT22;28750;59.842;17.584;2024-03-02T15:10:44;5.40;99.90
43143;DHT22;28750;59.842;17.584;2024-03-02T15:13:11;5.40;99.90
43143;DHT22;28750;59.842;17.584;2024-03-02T15:15:38;5.30;99.90
43143;DHT22;28750;59.842;17.584;2024-03-02T15:18:05;5.30;99.90
43143;DHT22;28750;59.842;17.584;2024-03-02T15:20:32;5.20;99.90
43143;DHT22;28750;59.842;17.584;2024-03-02T15:22:58;5.20;99.90
43143;DHT22;28750;59.842;17.584;2024-03-02T15:25:25;5.20;99.90
43143;DHT22;28750;59.842;17.584;2024-03-02T15:27:52;5.10;99.90
43143;DHT22;28750;59.842;17.584;2024-03-02T15:30:19;5.10;99.90
43143;DHT22;28750;59.842;17.584;2024-03-02T15:32:46;5.10;99.90
43143;DHT22;28750;59.842;17.584;2024-03-02T15:35:13;5.10;99.90
43143;DHT22;28750;59.842;17.584;2024-03-02T15:37:40;5.10;99.90
43143;DHT22;28750;59.842;17.584;2024-03-02T15:40:07;5.10;99.90
43143;DHT22;28750;59.842;17.584;2024-03-02T15:42:34;5.10;99.90
43143;DHT22;28750;59.842;17.584;2024-03-02T15:45:01;5.10;99.90